createdAt,value
2017-01-11T00:00:23.690Z,93
2017-01-11T00:01:26.665Z,93
2017-01-11T00:02:29.638Z,93
2017-01-11T00:04:36.022Z,93
2017-01-11T00:05:38.997Z,93
2017-01-11T00:06:42.469Z,92.9
2017-01-11T00:07:45.440Z,92.9
2017-01-11T00:08:48.409Z,92.9
2017-01-11T00:09:51.378Z,92.9
2017-01-11T00:10:54.851Z,92.9
2017-01-11T00:11:57.819Z,92.9
2017-01-11T00:13:00.795Z,92.9
2017-01-11T00:14:04.265Z,92.9
2017-01-11T00:15:07.233Z,92.9
2017-01-11T00:16:10.205Z,92.9
2017-01-11T00:17:13.177Z,92.9
2017-01-11T00:18:16.652Z,92.9
2017-01-11T00:19:19.624Z,92.9
2017-01-11T00:20:22.593Z,92.9
2017-01-11T00:21:25.563Z,92.9
2017-01-11T00:22:29.036Z,92.9
2017-01-11T00:23:32.003Z,92.9
2017-01-11T00:24:34.974Z,92.9
2017-01-11T00:25:37.944Z,92.9
2017-01-11T00:26:41.417Z,92.9
2017-01-11T00:27:44.387Z,92.9
2017-01-11T00:28:47.360Z,92.9
2017-01-11T00:29:50.833Z,92.9
2017-01-11T00:30:53.802Z,92.9
2017-01-11T00:31:56.773Z,92.9
2017-01-11T00:32:59.749Z,92.9
2017-01-11T00:34:03.223Z,92.9
2017-01-11T00:35:06.194Z,92.9
2017-01-11T00:36:09.163Z,92.9
2017-01-11T00:37:12.136Z,92.9
2017-01-11T00:38:15.609Z,92.9
2017-01-11T00:40:21.487Z,92.9
2017-01-11T00:41:24.961Z,92.9
2017-01-11T00:42:27.928Z,92.9
2017-01-11T00:43:30.895Z,92.9
2017-01-11T00:44:33.895Z,92.9
2017-01-11T00:45:37.362Z,92.9
2017-01-11T00:46:40.336Z,92.9
2017-01-11T00:47:43.305Z,92.9
2017-01-11T00:48:46.775Z,92.9
2017-01-11T00:49:49.746Z,92.9
2017-01-11T00:50:52.723Z,92.9
2017-01-11T00:52:59.104Z,92.9
2017-01-11T00:54:02.076Z,92.9
2017-01-11T00:55:05.049Z,92.9
2017-01-11T00:56:08.524Z,92.9
2017-01-11T00:57:11.493Z,92.9
2017-01-11T00:58:14.463Z,92.9
2017-01-11T00:59:17.433Z,92.9
2017-01-11T01:00:20.904Z,92.9
2017-01-11T01:01:23.889Z,92.9
2017-01-11T01:02:26.857Z,92.9
2017-01-11T01:03:29.833Z,92.9
2017-01-11T01:04:33.306Z,92.9
2017-01-11T01:05:36.279Z,92.9
2017-01-11T01:06:39.245Z,92.9
2017-01-11T01:07:42.717Z,92.9
2017-01-11T01:08:45.684Z,92.9
2017-01-11T01:09:48.650Z,92.9
2017-01-11T01:10:51.621Z,92.9
2017-01-11T01:12:58.008Z,92.9
2017-01-11T01:14:00.978Z,92.9
2017-01-11T01:15:04.449Z,92.9
2017-01-11T01:16:07.422Z,92.9
2017-01-11T01:17:10.392Z,92.9
2017-01-11T01:18:13.362Z,92.9
2017-01-11T01:19:16.837Z,92.9
2017-01-11T01:20:19.811Z,92.9
2017-01-11T01:21:22.784Z,92.9
2017-01-11T01:22:25.759Z,92.9
2017-01-11T01:23:29.233Z,92.9
2017-01-11T01:24:32.205Z,92.9
2017-01-11T01:25:35.177Z,92.9
2017-01-11T01:26:38.150Z,92.9
2017-01-11T01:27:41.623Z,92.9
2017-01-11T01:28:44.590Z,92.9
2017-01-11T01:29:47.565Z,92.9
2017-01-11T01:30:51.041Z,92.9
2017-01-11T01:31:54.019Z,92.9
2017-01-11T01:32:56.985Z,92.9
2017-01-11T01:33:59.975Z,92.9
2017-01-11T01:35:03.451Z,92.9
2017-01-11T01:36:06.421Z,92.9
2017-01-11T01:37:09.399Z,92.9
2017-01-11T01:38:12.370Z,92.9
2017-01-11T01:39:15.841Z,92.9
2017-01-11T01:40:18.810Z,92.9
2017-01-11T01:41:21.780Z,92.9
2017-01-11T01:42:24.754Z,92.9
2017-01-11T01:44:31.137Z,92.9
2017-01-11T01:45:34.109Z,92.9
2017-01-11T01:46:37.580Z,92.9
2017-01-11T01:47:40.548Z,92.9
2017-01-11T01:48:43.521Z,92.9
2017-01-11T01:49:46.994Z,92.9
2017-01-11T01:50:49.965Z,92.9
2017-01-11T01:51:52.937Z,92.9
2017-01-11T01:52:55.909Z,92.9
2017-01-11T01:53:59.379Z,92.9
2017-01-11T01:55:02.348Z,92.9
2017-01-11T01:56:05.317Z,92.9
2017-01-11T01:57:08.283Z,92.9
2017-01-11T01:58:11.755Z,92.9
2017-01-11T01:59:14.724Z,92.9
2017-01-11T02:00:17.695Z,92.9
2017-01-11T02:01:21.163Z,92.9
2017-01-11T02:02:24.133Z,92.9
2017-01-11T02:03:27.109Z,92.9
2017-01-11T02:04:30.081Z,92.9
2017-01-11T02:05:33.553Z,92.9
2017-01-11T02:06:36.524Z,92.9
2017-01-11T02:07:39.495Z,92.9
2017-01-11T02:08:42.965Z,92.9
2017-01-11T02:09:45.942Z,92.9
2017-01-11T02:10:48.909Z,92.9
2017-01-11T02:11:51.901Z,92.9
2017-01-11T02:13:58.282Z,92.9
2017-01-11T02:15:01.249Z,92.9
2017-01-11T02:16:04.726Z,92.9
2017-01-11T02:17:07.701Z,92.9
2017-01-11T02:18:10.686Z,92.9
2017-01-11T02:19:13.658Z,92.9
2017-01-11T02:20:17.132Z,92.9
2017-01-11T02:21:20.096Z,92.9
2017-01-11T02:22:23.076Z,92.9
2017-01-11T02:23:26.050Z,92.9
2017-01-11T02:24:29.524Z,92.9
2017-01-11T02:25:32.494Z,92.9
2017-01-11T02:26:35.470Z,92.9
2017-01-11T02:27:38.941Z,92.9
2017-01-11T02:28:41.913Z,92.9
2017-01-11T02:29:44.881Z,92.9
2017-01-11T02:30:47.859Z,92.9
2017-01-11T02:31:51.335Z,92.9
2017-01-11T02:32:54.307Z,92.9
2017-01-11T02:33:57.284Z,92.9
2017-01-11T02:35:00.252Z,92.9
2017-01-11T02:36:03.725Z,92.9
2017-01-11T02:37:06.694Z,92.9
2017-01-11T02:38:09.665Z,92.9
2017-01-11T02:40:16.051Z,92.9
2017-01-11T02:41:19.020Z,92.9
2017-01-11T02:42:21.996Z,92.9
2017-01-11T02:43:25.468Z,92.9
2017-01-11T02:44:28.439Z,92.9
2017-01-11T02:45:31.408Z,92.9
2017-01-11T02:46:34.876Z,92.9
2017-01-11T02:47:37.847Z,92.9
2017-01-11T02:48:40.818Z,92.9
2017-01-11T02:49:43.786Z,92.9
2017-01-11T02:50:47.261Z,92.9
2017-01-11T02:51:50.229Z,92.9
2017-01-11T02:52:53.198Z,92.9
2017-01-11T02:54:59.586Z,92.9
2017-01-11T02:56:02.556Z,92.9
2017-01-11T02:57:05.779Z,92.9
2017-01-11T02:58:08.751Z,92.9
2017-01-11T02:59:12.223Z,92.9
2017-01-11T03:00:15.191Z,92.9
2017-01-11T03:01:18.163Z,92.9
2017-01-11T03:02:21.138Z,92.9
2017-01-11T03:03:24.609Z,92.9
2017-01-11T03:04:27.573Z,92.9
2017-01-11T03:05:30.543Z,92.9
2017-01-11T03:06:34.020Z,92.9
2017-01-11T03:07:36.989Z,92.9
2017-01-11T03:08:39.959Z,92.9
2017-01-11T03:09:42.934Z,92.9
2017-01-11T03:10:46.407Z,92.9
2017-01-11T03:11:49.379Z,92.9
2017-01-11T03:12:52.349Z,92.9
2017-01-11T03:13:55.321Z,92.9
2017-01-11T03:16:01.709Z,92.9
2017-01-11T03:17:04.679Z,92.9
2017-01-11T03:18:08.153Z,92.9
2017-01-11T03:19:11.143Z,92.9
2017-01-11T03:20:14.114Z,92.9
2017-01-11T03:21:17.590Z,92.9
2017-01-11T03:23:23.468Z,92.9
2017-01-11T03:24:26.446Z,92.9
2017-01-11T03:25:29.920Z,92.9
2017-01-11T03:26:32.890Z,92.9
2017-01-11T03:27:35.861Z,92.9
2017-01-11T03:28:39.334Z,92.9
2017-01-11T03:29:42.306Z,92.9
2017-01-11T03:30:45.281Z,92.9
2017-01-11T03:31:48.257Z,92.9
2017-01-11T03:32:51.732Z,92.9
2017-01-11T03:33:54.702Z,92.9
2017-01-11T03:34:57.672Z,92.9
2017-01-11T03:36:01.142Z,92.9
2017-01-11T03:37:04.114Z,92.9
2017-01-11T03:38:07.087Z,92.9
2017-01-11T03:39:10.059Z,92.9
2017-01-11T03:40:13.532Z,92.9
2017-01-11T03:42:19.406Z,92.9
2017-01-11T03:43:22.880Z,92.9
2017-01-11T03:44:25.849Z,92.9
2017-01-11T03:45:28.816Z,92.9
2017-01-11T03:46:31.783Z,92.9
2017-01-11T03:48:38.174Z,92.9
2017-01-11T03:49:41.140Z,92.9
2017-01-11T03:50:44.609Z,92.9
2017-01-11T03:51:47.576Z,92.9
2017-01-11T03:52:50.553Z,92.9
2017-01-11T03:53:54.028Z,92.9
2017-01-11T03:54:56.998Z,92.9
2017-01-11T03:55:59.969Z,92.9
2017-01-11T03:57:02.943Z,92.9
2017-01-11T03:58:06.415Z,92.9
2017-01-11T03:59:09.385Z,92.9
2017-01-11T04:00:12.355Z,92.9
2017-01-11T04:01:15.326Z,92.9
2017-01-11T04:02:18.799Z,92.9
2017-01-11T04:03:21.770Z,92.9
2017-01-11T04:04:24.738Z,92.9
2017-01-11T04:05:28.212Z,92.9
2017-01-11T04:06:31.178Z,92.9
2017-01-11T04:07:34.143Z,92.9
2017-01-11T04:08:37.114Z,92.9
2017-01-11T04:09:40.585Z,92.9
2017-01-11T04:10:43.556Z,92.9
2017-01-11T04:11:46.556Z,92.9
2017-01-11T04:12:49.529Z,92.9
2017-01-11T04:13:53.002Z,92.9
2017-01-11T04:14:55.977Z,92.9
2017-01-11T04:15:58.947Z,92.9
2017-01-11T04:17:02.421Z,92.9
2017-01-11T04:18:05.395Z,92.9
2017-01-11T04:19:08.368Z,92.9
2017-01-11T04:20:11.332Z,92.9
2017-01-11T04:21:14.805Z,92.9
2017-01-11T04:22:17.773Z,92.9
2017-01-11T04:23:20.746Z,92.9
2017-01-11T04:24:24.222Z,92.8
2017-01-11T04:25:27.199Z,92.9
2017-01-11T04:26:30.169Z,92.9
2017-01-11T04:27:33.141Z,92.9
2017-01-11T04:28:36.611Z,92.9
2017-01-11T04:29:39.587Z,92.9
2017-01-11T04:30:42.557Z,92.9
2017-01-11T04:31:45.525Z,92.8
2017-01-11T04:32:48.998Z,92.9
2017-01-11T04:33:51.970Z,92.8
2017-01-11T04:34:54.938Z,92.9
2017-01-11T04:35:58.415Z,92.9
2017-01-11T04:37:01.392Z,92.8
2017-01-11T04:38:04.529Z,92.9
2017-01-11T04:39:07.498Z,92.8
2017-01-11T04:40:10.471Z,92.8
2017-01-11T04:41:13.944Z,92.8
2017-01-11T04:42:16.914Z,92.8
2017-01-11T04:43:19.886Z,92.8
2017-01-11T04:44:22.855Z,92.8
2017-01-11T04:45:26.332Z,92.8
2017-01-11T04:46:29.304Z,92.8
2017-01-11T04:47:32.277Z,92.8
2017-01-11T04:48:35.749Z,92.8
2017-01-11T04:50:41.624Z,92.8
2017-01-11T04:51:44.592Z,92.8
2017-01-11T04:52:48.063Z,92.8
2017-01-11T04:53:51.034Z,92.8
2017-01-11T04:54:54.007Z,92.8
2017-01-11T04:57:00.392Z,92.8
2017-01-11T04:58:03.363Z,92.8
2017-01-11T04:59:06.840Z,92.8
2017-01-11T05:00:09.808Z,92.8
2017-01-11T05:01:12.774Z,92.8
2017-01-11T05:02:15.755Z,92.8
2017-01-11T05:03:19.229Z,92.8
2017-01-11T05:04:22.197Z,92.8
2017-01-11T05:05:25.171Z,92.8
2017-01-11T05:06:28.411Z,92.8
2017-01-11T05:07:31.380Z,92.8
2017-01-11T05:08:34.851Z,92.8
2017-01-11T05:09:37.819Z,92.8
2017-01-11T05:10:40.791Z,92.8
2017-01-11T05:11:43.761Z,92.8
2017-01-11T05:12:47.233Z,92.8
2017-01-11T05:13:50.207Z,92.8
2017-01-11T05:14:53.182Z,92.8
2017-01-11T05:15:56.153Z,92.8
2017-01-11T05:16:59.634Z,92.8
2017-01-11T05:18:02.603Z,92.8
2017-01-11T05:19:05.572Z,92.8
2017-01-11T05:20:09.041Z,92.8
2017-01-11T05:21:12.007Z,92.8
2017-01-11T05:22:14.976Z,92.8
2017-01-11T05:23:17.945Z,92.8
2017-01-11T05:24:21.417Z,92.8
2017-01-11T05:25:24.416Z,92.8
2017-01-11T05:26:27.389Z,92.8
2017-01-11T05:27:30.356Z,92.8
2017-01-11T05:28:33.825Z,92.8
2017-01-11T05:29:36.798Z,92.8
2017-01-11T05:30:39.763Z,92.8
2017-01-11T05:31:43.240Z,92.8
2017-01-11T05:32:46.209Z,92.8
2017-01-11T05:34:52.591Z,92.8
2017-01-11T05:35:55.565Z,92.8
2017-01-11T05:36:58.541Z,92.8
2017-01-11T05:38:01.518Z,92.8
2017-01-11T05:39:04.990Z,92.8
2017-01-11T05:40:07.959Z,92.8
2017-01-11T05:41:10.931Z,92.8
2017-01-11T05:42:13.900Z,92.8
2017-01-11T05:43:17.372Z,92.8
2017-01-11T05:44:20.341Z,92.8
2017-01-11T05:45:23.316Z,92.8
2017-01-11T05:46:26.790Z,92.8
2017-01-11T05:47:29.763Z,92.8
2017-01-11T05:48:32.735Z,92.8
2017-01-11T05:49:35.713Z,92.8
2017-01-11T05:50:39.184Z,92.8
2017-01-11T05:51:42.154Z,92.8
2017-01-11T05:52:45.124Z,92.8
2017-01-11T05:53:48.093Z,92.8
2017-01-11T05:54:51.562Z,92.8
2017-01-11T05:55:54.528Z,92.8
2017-01-11T05:56:57.501Z,92.8
2017-01-11T05:58:00.972Z,92.8
2017-01-11T05:59:03.940Z,92.8
2017-01-11T06:00:06.936Z,92.8
2017-01-11T06:01:09.906Z,92.8
2017-01-11T06:02:13.378Z,92.8
2017-01-11T06:03:16.347Z,92.8
2017-01-11T06:04:19.316Z,92.8
2017-01-11T06:05:22.788Z,92.8
2017-01-11T06:07:28.663Z,92.8
2017-01-11T06:08:31.634Z,92.8
2017-01-11T06:09:35.105Z,92.8
2017-01-11T06:10:38.072Z,92.8
2017-01-11T06:11:41.037Z,92.8
2017-01-11T06:12:44.511Z,92.8
2017-01-11T06:13:47.482Z,92.8
2017-01-11T06:14:50.455Z,92.8
2017-01-11T06:15:53.425Z,92.8
2017-01-11T06:16:56.902Z,92.8
2017-01-11T06:17:59.875Z,92.8
2017-01-11T06:19:02.842Z,92.8
2017-01-11T06:20:06.316Z,92.8
2017-01-11T06:21:09.288Z,92.8
2017-01-11T06:22:12.264Z,92.8
2017-01-11T06:23:15.237Z,92.8
2017-01-11T06:24:18.709Z,92.8
2017-01-11T06:25:21.677Z,92.8
2017-01-11T06:26:24.651Z,92.8
2017-01-11T06:27:27.620Z,92.8
2017-01-11T06:28:31.094Z,92.8
2017-01-11T06:29:34.058Z,92.8
2017-01-11T06:30:37.031Z,92.8
2017-01-11T06:31:40.508Z,92.8
2017-01-11T06:32:43.479Z,92.8
2017-01-11T06:33:46.446Z,92.8
2017-01-11T06:34:49.415Z,92.8
2017-01-11T06:35:52.892Z,92.8
2017-01-11T06:36:55.861Z,92.8
2017-01-11T06:37:58.826Z,92.8
2017-01-11T06:39:02.300Z,92.8
2017-01-11T06:40:05.270Z,92.8
2017-01-11T06:41:08.238Z,92.8
2017-01-11T06:42:11.213Z,92.8
2017-01-11T06:43:14.688Z,92.8
2017-01-11T06:44:17.662Z,92.8
2017-01-11T06:45:20.638Z,92.8
2017-01-11T06:46:24.112Z,92.8
2017-01-11T06:47:27.081Z,92.8
2017-01-11T06:48:30.055Z,92.8
2017-01-11T06:49:33.028Z,92.8
2017-01-11T06:50:36.498Z,92.8
2017-01-11T06:51:39.471Z,92.8
2017-01-11T06:52:42.443Z,92.8
2017-01-11T06:53:45.414Z,92.8
2017-01-11T06:54:48.893Z,92.8
2017-01-11T06:55:51.861Z,92.8
2017-01-11T06:56:54.830Z,92.8
2017-01-11T06:57:58.302Z,92.8
2017-01-11T06:59:01.271Z,92.8
2017-01-11T07:00:04.243Z,92.8
2017-01-11T07:01:07.211Z,92.8
2017-01-11T07:02:10.680Z,92.8
2017-01-11T07:03:13.650Z,92.8
2017-01-11T07:04:16.621Z,92.8
2017-01-11T07:05:20.099Z,92.8
2017-01-11T07:06:23.067Z,92.8
2017-01-11T07:07:26.036Z,92.8
2017-01-11T07:08:29.005Z,92.8
2017-01-11T07:09:32.481Z,92.8
2017-01-11T07:10:35.451Z,92.8
2017-01-11T07:11:38.423Z,92.8
2017-01-11T07:12:41.395Z,92.8
2017-01-11T07:13:44.871Z,92.8
2017-01-11T07:14:47.847Z,92.8
2017-01-11T07:15:50.821Z,92.8
2017-01-11T07:16:54.299Z,92.8
2017-01-11T07:17:57.273Z,92.8
2017-01-11T07:19:00.248Z,92.8
2017-01-11T07:20:03.217Z,92.8
2017-01-11T07:21:06.687Z,92.8
2017-01-11T07:22:09.655Z,92.8
2017-01-11T07:23:12.626Z,92.8
2017-01-11T07:24:16.102Z,92.8
2017-01-11T07:25:19.069Z,92.8
2017-01-11T07:26:22.035Z,92.8
2017-01-11T07:27:25.037Z,92.8
2017-01-11T07:29:31.426Z,92.8
2017-01-11T07:30:34.397Z,92.8
2017-01-11T07:31:37.531Z,92.8
2017-01-11T07:33:43.920Z,92.8
2017-01-11T07:34:46.915Z,92.8
2017-01-11T07:35:49.886Z,92.8
2017-01-11T07:36:53.365Z,92.8
2017-01-11T07:37:56.506Z,92.8
2017-01-11T07:38:59.483Z,92.8
2017-01-11T07:40:02.452Z,92.8
2017-01-11T07:41:05.926Z,92.8
2017-01-11T07:42:08.900Z,92.8
2017-01-11T07:43:11.871Z,92.8
2017-01-11T07:44:14.843Z,92.8
2017-01-11T07:46:21.219Z,92.9
2017-01-11T07:47:24.189Z,92.8
2017-01-11T07:48:27.666Z,92.8
2017-01-11T07:49:30.636Z,92.9
2017-01-11T07:50:33.609Z,92.9
2017-01-11T07:51:37.081Z,92.9
2017-01-11T07:52:40.054Z,92.9
2017-01-11T07:53:43.022Z,92.9
2017-01-11T07:54:45.992Z,92.9
2017-01-11T07:55:49.470Z,92.9
2017-01-11T07:56:52.439Z,92.9
2017-01-11T07:57:55.409Z,92.9
2017-01-11T07:58:58.891Z,92.9
2017-01-11T08:00:01.865Z,92.9
2017-01-11T08:01:04.834Z,92.9
2017-01-11T08:02:07.802Z,92.9
2017-01-11T08:03:11.275Z,92.9
2017-01-11T08:04:14.270Z,92.9
2017-01-11T08:05:17.241Z,92.9
2017-01-11T08:06:20.712Z,92.9
2017-01-11T08:07:23.681Z,92.9
2017-01-11T08:08:26.652Z,92.9
2017-01-11T08:09:29.620Z,92.9
2017-01-11T08:10:33.089Z,92.9
2017-01-11T08:11:36.060Z,92.9
2017-01-11T08:12:39.033Z,92.9
2017-01-11T08:13:42.505Z,92.9
2017-01-11T08:14:45.474Z,92.9
2017-01-11T08:15:48.441Z,92.9
2017-01-11T08:16:51.411Z,92.9
2017-01-11T08:17:54.886Z,92.9
2017-01-11T08:18:57.855Z,92.9
2017-01-11T08:20:00.833Z,92.9
2017-01-11T08:21:04.309Z,92.9
2017-01-11T08:22:07.278Z,92.9
2017-01-11T08:23:10.249Z,92.9
2017-01-11T08:24:13.223Z,92.9
2017-01-11T08:25:16.696Z,92.9
2017-01-11T08:27:22.578Z,92.9
2017-01-11T08:28:26.053Z,92.9
2017-01-11T08:29:29.021Z,92.9
2017-01-11T08:30:32.024Z,93
2017-01-11T08:31:35.502Z,93
2017-01-11T08:32:38.475Z,93
2017-01-11T08:33:41.455Z,93
2017-01-11T08:34:44.428Z,93
2017-01-11T08:35:47.902Z,93
2017-01-11T08:36:50.869Z,93
2017-01-11T08:37:53.838Z,93
2017-01-11T08:38:57.310Z,93
2017-01-11T08:40:00.280Z,93
2017-01-11T08:41:03.250Z,93
2017-01-11T08:42:06.225Z,93
2017-01-11T08:43:09.701Z,93
2017-01-11T08:44:12.672Z,93
2017-01-11T08:45:15.642Z,93
2017-01-11T08:46:19.117Z,93
2017-01-11T08:47:22.082Z,93
2017-01-11T08:48:25.051Z,93
2017-01-11T08:49:28.523Z,93
2017-01-11T08:50:31.495Z,93
2017-01-11T08:51:34.465Z,93
2017-01-11T08:52:37.433Z,93
2017-01-11T08:53:40.902Z,93
2017-01-11T08:54:43.872Z,93
2017-01-11T08:55:46.845Z,93
2017-01-11T08:56:50.320Z,93
2017-01-11T08:57:53.289Z,93
2017-01-11T08:58:56.264Z,93
2017-01-11T08:59:59.731Z,93
2017-01-11T09:01:02.702Z,93
2017-01-11T09:02:05.676Z,93
2017-01-11T09:03:08.648Z,93
2017-01-11T09:04:12.122Z,93
2017-01-11T09:05:15.096Z,93
2017-01-11T09:06:18.070Z,93
2017-01-11T09:08:24.450Z,93
2017-01-11T09:09:27.417Z,93
2017-01-11T09:10:30.886Z,93
2017-01-11T09:11:33.860Z,93
2017-01-11T09:12:36.830Z,93
2017-01-11T09:13:40.300Z,93
2017-01-11T09:14:43.270Z,93
2017-01-11T09:15:46.237Z,93
2017-01-11T09:16:49.714Z,93
2017-01-11T09:17:52.687Z,93
2017-01-11T09:18:55.664Z,93
2017-01-11T09:19:58.635Z,93
2017-01-11T09:21:02.109Z,93
2017-01-11T09:22:05.081Z,93
2017-01-11T09:23:08.051Z,93
2017-01-11T09:24:11.525Z,93
2017-01-11T09:25:14.493Z,93
2017-01-11T09:26:17.468Z,93
2017-01-11T09:27:20.938Z,93
2017-01-11T09:28:23.908Z,93
2017-01-11T09:29:26.877Z,93
2017-01-11T09:30:29.850Z,93
2017-01-11T09:31:33.325Z,93
2017-01-11T09:32:36.299Z,93.1
2017-01-11T09:33:39.272Z,93.1
2017-01-11T09:35:45.656Z,93.1
2017-01-11T09:36:48.627Z,93.1
2017-01-11T09:37:52.103Z,93.1
2017-01-11T09:38:55.097Z,93.1
2017-01-11T09:39:58.067Z,93.1
2017-01-11T09:41:01.539Z,93.1
2017-01-11T09:43:07.417Z,93.1
2017-01-11T09:44:10.893Z,93.1
2017-01-11T09:45:13.883Z,93.1
2017-01-11T09:46:16.851Z,93.1
2017-01-11T09:47:20.319Z,93.1
2017-01-11T09:48:23.287Z,93.1
2017-01-11T09:49:26.255Z,93.1
2017-01-11T09:50:29.223Z,93.1
2017-01-11T09:51:32.695Z,93.1
2017-01-11T09:52:35.666Z,93.1
2017-01-11T09:53:38.641Z,93.1
2017-01-11T09:54:42.117Z,93.1
2017-01-11T09:56:47.999Z,93.1
2017-01-11T09:57:51.476Z,93.1
2017-01-11T09:58:54.445Z,93.1
2017-01-11T09:59:57.417Z,93.1
2017-01-11T10:01:00.892Z,93.1
2017-01-11T10:02:03.861Z,93.1
2017-01-11T10:03:06.830Z,93.1
2017-01-11T10:04:10.306Z,93.2
2017-01-11T10:05:13.277Z,93.2
2017-01-11T10:07:19.664Z,93.2
2017-01-11T10:08:22.632Z,93.2
2017-01-11T10:09:25.610Z,93.2
2017-01-11T10:10:29.087Z,93.2
2017-01-11T10:11:32.061Z,93.2
2017-01-11T10:12:35.030Z,93.2
2017-01-11T10:13:38.501Z,93.2
2017-01-11T10:14:41.469Z,93.2
2017-01-11T10:15:44.440Z,93.2
2017-01-11T10:16:47.408Z,93.2
2017-01-11T10:17:50.879Z,93.2
2017-01-11T10:18:53.844Z,93.2
2017-01-11T10:19:56.810Z,93.2
2017-01-11T10:21:00.285Z,93.2
2017-01-11T10:22:03.426Z,93.2
2017-01-11T10:23:06.399Z,93.2
2017-01-11T10:24:09.665Z,93.2
2017-01-11T10:25:12.635Z,93.2
2017-01-11T10:26:15.610Z,93.2
2017-01-11T10:27:19.083Z,93.2
2017-01-11T10:28:22.225Z,93.2
2017-01-11T10:29:25.193Z,93.2
2017-01-11T10:30:28.166Z,93.2
2017-01-11T10:31:31.641Z,93.2
2017-01-11T10:32:34.615Z,93.2
2017-01-11T10:33:37.582Z,93.2
2017-01-11T10:34:41.060Z,93.2
2017-01-11T10:35:44.027Z,93.2
2017-01-11T10:36:46.997Z,93.2
2017-01-11T10:37:50.468Z,93.2
2017-01-11T10:38:53.435Z,93.2
2017-01-11T10:39:56.401Z,93.2
2017-01-11T10:40:59.870Z,93.2
2017-01-11T10:42:02.843Z,93.2
2017-01-11T10:43:05.814Z,93.2
2017-01-11T10:44:08.787Z,93.2
2017-01-11T10:45:12.262Z,93.2
2017-01-11T10:46:15.232Z,93.2
2017-01-11T10:47:18.209Z,93.2
2017-01-11T10:48:21.688Z,93.2
2017-01-11T10:49:24.657Z,93.2
2017-01-11T10:50:27.625Z,93.2
2017-01-11T10:51:31.095Z,93.2
2017-01-11T10:52:34.068Z,93.2
2017-01-11T10:53:37.067Z,93.2
2017-01-11T10:54:40.542Z,93.2
2017-01-11T10:55:43.513Z,93.2
2017-01-11T10:56:46.481Z,93.2
2017-01-11T10:57:49.955Z,93.1
2017-01-11T10:58:52.925Z,93.1
2017-01-11T10:59:55.896Z,93.1
2017-01-11T11:00:59.369Z,93.2
2017-01-11T11:02:02.350Z,93.2
2017-01-11T11:03:05.337Z,93.2
2017-01-11T11:04:08.804Z,93.2
2017-01-11T11:05:11.771Z,93.2
2017-01-11T11:07:18.157Z,93.2
2017-01-11T11:08:21.126Z,93.2
2017-01-11T11:09:24.095Z,93.2
2017-01-11T11:10:27.565Z,93.2
2017-01-11T11:11:30.535Z,93.2
2017-01-11T11:12:33.503Z,93.2
2017-01-11T11:13:36.979Z,93.2
2017-01-11T11:14:39.951Z,93.2
2017-01-11T11:15:42.920Z,93.2
2017-01-11T11:16:46.394Z,93.2
2017-01-11T11:17:49.358Z,93.2
2017-01-11T11:18:52.333Z,93.2
2017-01-11T11:19:55.804Z,93.2
2017-01-11T11:20:58.776Z,93.2
2017-01-11T11:22:01.746Z,93.2
2017-01-11T11:23:05.219Z,93.2
2017-01-11T11:24:08.190Z,93.2
2017-01-11T11:25:11.160Z,93.3
2017-01-11T11:27:17.546Z,93.3
2017-01-11T11:28:20.515Z,93.3
2017-01-11T11:29:23.996Z,93.3
2017-01-11T11:30:26.970Z,93.3
2017-01-11T11:31:29.945Z,93.3
2017-01-11T11:32:33.418Z,93.3
2017-01-11T11:33:36.383Z,93.3
2017-01-11T11:34:39.353Z,93.3
2017-01-11T11:35:42.829Z,93.3
2017-01-11T11:36:45.804Z,93.3
2017-01-11T11:37:48.787Z,93.3
2017-01-11T11:38:52.263Z,93.3
2017-01-11T11:39:55.236Z,93.3
2017-01-11T11:40:58.204Z,93.2
2017-01-11T11:42:01.182Z,93.2
2017-01-11T11:43:04.657Z,93.2
2017-01-11T11:44:07.627Z,93.2
2017-01-11T11:45:10.599Z,93.2
2017-01-11T11:46:14.097Z,93.2
2017-01-11T11:47:17.070Z,93.2
2017-01-11T11:48:20.037Z,93.2
2017-01-11T11:49:23.508Z,93.2
2017-01-11T11:50:26.481Z,93.2
2017-01-11T11:51:29.451Z,93.2
2017-01-11T11:52:32.924Z,93.2
2017-01-11T11:53:35.891Z,93.2
2017-01-11T11:54:38.861Z,93.3
2017-01-11T11:55:42.338Z,93.3
2017-01-11T11:56:45.310Z,93.3
2017-01-11T11:57:48.278Z,93.3
2017-01-11T11:58:51.754Z,93.3
2017-01-11T11:59:54.725Z,93.3
2017-01-11T12:00:57.692Z,93.3
2017-01-11T12:02:01.168Z,93.3
2017-01-11T12:03:04.142Z,93.3
2017-01-11T12:04:07.110Z,93.3
2017-01-11T12:05:10.582Z,93.3
2017-01-11T12:06:13.553Z,93.3
2017-01-11T12:07:17.026Z,93.3
2017-01-11T12:08:19.991Z,93.3
2017-01-11T12:09:22.960Z,93.3
2017-01-11T12:10:26.431Z,93.3
2017-01-11T12:11:29.399Z,93.3
2017-01-11T12:12:32.374Z,93.4
2017-01-11T12:13:35.847Z,93.4
2017-01-11T12:14:38.818Z,93.4
2017-01-11T12:15:41.788Z,93.3
2017-01-11T12:16:45.264Z,93.4
2017-01-11T12:17:48.231Z,93.4
2017-01-11T12:18:51.201Z,93.4
2017-01-11T12:20:57.586Z,93.4
2017-01-11T12:22:00.552Z,93.4
2017-01-11T12:23:04.023Z,93.4
2017-01-11T12:24:06.992Z,93.5
2017-01-11T12:25:09.962Z,93.5
2017-01-11T12:26:13.435Z,93.5
2017-01-11T12:27:16.406Z,93.5
2017-01-11T12:28:19.375Z,93.5
2017-01-11T12:29:22.853Z,93.5
2017-01-11T12:30:25.828Z,93.5
2017-01-11T12:31:28.805Z,93.5
2017-01-11T12:32:32.279Z,93.5
2017-01-11T12:33:35.249Z,93.5
2017-01-11T12:34:38.218Z,93.5
2017-01-11T12:35:41.690Z,93.5
2017-01-11T12:36:44.665Z,93.6
2017-01-11T12:37:47.636Z,93.5
2017-01-11T12:38:51.113Z,93.5
2017-01-11T12:39:54.082Z,93.5
2017-01-11T12:40:57.051Z,93.6
2017-01-11T12:42:00.521Z,93.6
2017-01-11T12:43:03.490Z,93.6
2017-01-11T12:44:06.459Z,93.6
2017-01-11T12:45:09.934Z,93.6
2017-01-11T12:46:12.907Z,93.6
2017-01-11T12:47:15.878Z,93.6
2017-01-11T12:48:19.348Z,93.6
2017-01-11T12:49:22.320Z,93.6
2017-01-11T12:50:25.289Z,93.6
2017-01-11T12:51:28.766Z,93.6
2017-01-11T12:52:31.735Z,93.6
2017-01-11T12:53:34.706Z,93.6
2017-01-11T12:54:38.186Z,93.6
2017-01-11T12:55:41.157Z,93.6
2017-01-11T12:56:44.130Z,93.6
2017-01-11T12:57:47.603Z,93.6
2017-01-11T12:58:50.740Z,93.6
2017-01-11T12:59:53.711Z,93.6
2017-01-11T13:00:56.680Z,93.7
2017-01-11T13:02:00.157Z,93.7
2017-01-11T13:03:03.134Z,93.7
2017-01-11T13:04:06.109Z,93.7
2017-01-11T13:05:09.583Z,93.7
2017-01-11T13:06:12.552Z,93.7
2017-01-11T13:07:15.524Z,93.7
2017-01-11T13:08:18.497Z,93.7
2017-01-11T13:10:24.876Z,93.7
2017-01-11T13:11:28.352Z,93.7
2017-01-11T13:12:31.326Z,93.7
2017-01-11T13:13:34.331Z,93.7
2017-01-11T13:14:37.306Z,93.7
2017-01-11T13:15:40.779Z,93.7
2017-01-11T13:16:43.753Z,93.7
2017-01-11T13:17:46.728Z,93.7
2017-01-11T13:18:50.202Z,93.7
2017-01-11T13:19:53.181Z,93.7
2017-01-11T13:20:56.154Z,93.7
2017-01-11T13:21:59.625Z,93.7
2017-01-11T13:23:02.598Z,93.7
2017-01-11T13:24:05.568Z,93.7
2017-01-11T13:25:09.040Z,93.7
2017-01-11T13:26:12.009Z,93.7
2017-01-11T13:27:14.980Z,93.7
2017-01-11T13:28:18.454Z,93.7
2017-01-11T13:29:21.430Z,93.7
2017-01-11T13:30:24.406Z,93.7
2017-01-11T13:31:27.910Z,93.7
2017-01-11T13:32:30.877Z,93.7
2017-01-11T13:33:33.856Z,93.7
2017-01-11T13:34:37.330Z,93.7
2017-01-11T13:35:40.301Z,93.7
2017-01-11T13:36:43.271Z,93.7
2017-01-11T13:37:46.743Z,93.7
2017-01-11T13:38:49.717Z,93.7
2017-01-11T13:39:52.691Z,93.7
2017-01-11T13:40:56.166Z,93.7
2017-01-11T13:41:59.146Z,93.7
2017-01-11T13:43:02.116Z,93.7
2017-01-11T13:44:05.593Z,93.7
2017-01-11T13:45:08.566Z,93.7
2017-01-11T13:46:11.540Z,93.7
2017-01-11T13:47:15.015Z,93.7
2017-01-11T13:48:17.993Z,93.7
2017-01-11T13:49:20.961Z,93.7
2017-01-11T13:50:24.433Z,93.7
2017-01-11T13:51:27.405Z,93.7
2017-01-11T13:52:30.376Z,93.7
2017-01-11T13:53:33.354Z,93.7
2017-01-11T13:54:36.855Z,93.7
2017-01-11T13:55:39.826Z,93.7
2017-01-11T13:56:42.799Z,93.7
2017-01-11T13:57:46.300Z,93.7
2017-01-11T13:58:49.272Z,93.7
2017-01-11T13:59:52.242Z,93.7
2017-01-11T14:00:55.718Z,93.6
2017-01-11T14:01:58.691Z,93.6
2017-01-11T14:03:01.663Z,93.6
2017-01-11T14:04:05.146Z,93.6
2017-01-11T14:05:08.120Z,93.6
2017-01-11T14:06:11.091Z,93.6
2017-01-11T14:07:14.565Z,93.6
2017-01-11T14:08:17.538Z,93.6
2017-01-11T14:09:20.508Z,93.6
2017-01-11T14:10:23.990Z,93.6
2017-01-11T14:11:26.959Z,93.6
2017-01-11T14:12:29.934Z,93.6
2017-01-11T14:13:33.407Z,93.6
2017-01-11T14:14:36.376Z,93.6
2017-01-11T14:15:39.349Z,93.6
2017-01-11T14:16:42.824Z,93.6
2017-01-11T14:17:45.798Z,93.6
2017-01-11T14:18:48.770Z,93.6
2017-01-11T14:19:52.250Z,93.6
2017-01-11T14:20:55.226Z,93.6
2017-01-11T14:21:58.201Z,93.6
2017-01-11T14:23:01.677Z,93.6
2017-01-11T14:24:04.650Z,93.6
2017-01-11T14:25:07.622Z,93.6
2017-01-11T14:26:11.098Z,93.6
2017-01-11T14:27:14.070Z,93.6
2017-01-11T14:28:17.042Z,93.6
2017-01-11T14:29:20.516Z,93.6
2017-01-11T14:30:23.486Z,93.6
2017-01-11T14:31:26.460Z,93.6
2017-01-11T14:32:29.937Z,93.6
2017-01-11T14:33:32.906Z,93.6
2017-01-11T14:34:35.877Z,93.6